Time;durP1;ratioP1;P1;durP2;ratioP2;P2;SDS_P1;SDS_P2;PMS_P1;PMS_P2;Temp;Humidity;BMP_temperature;BMP_pressure;BME280_temperature;BME280_humidity;BME280_pressure;Samples;Min_cycle;Max_cycle;Signal;HPM_P1;HPM_P2
2023/09/08 00:00:29;;;;;;;6.83;6.23;;;;;;;20.10;71.50;156530.78;4975320;28;20449;-80
2023/09/08 00:02:56;;;;;;;7.30;6.53;;;;;;;20.07;71.81;156521.69;4982265;28;20461;-80
2023/09/08 00:05:23;;;;;;;6.67;6.07;;;;;;;20.03;72.11;156512.53;4976162;28;20906;-80
2023/09/08 00:07:49;;;;;;;8.07;7.00;;;;;;;19.98;72.32;156499.50;4984129;28;20537;-80
2023/09/08 00:10:16;;;;;;;7.10;6.40;;;;;;;19.95;72.93;156491.69;4977889;28;20469;-80
2023/09/08 00:12:42;;;;;;;8.10;6.53;;;;;;;19.92;73.35;156485.16;4983098;28;20552;-79
2023/09/08 00:15:12;;;;;;;8.07;7.33;;;;;;;19.87;73.15;156472.13;4965144;28;20446;-80
2023/09/08 00:17:38;;;;;;;9.43;6.50;;;;;;;19.85;73.52;156466.94;4960457;28;20446;-80
2023/09/08 00:20:09;;;;;;;7.80;7.00;;;;;;;19.83;73.74;156460.41;4977926;28;20544;-79
2023/09/08 00:22:35;;;;;;;7.30;6.60;;;;;;;19.78;73.49;156448.63;4961411;28;20455;-80
2023/09/08 00:25:03;;;;;;;8.23;6.13;;;;;;;19.74;73.03;156438.22;4976812;28;20694;-79
2023/09/08 00:27:30;;;;;;;7.50;6.80;;;;;;;19.73;72.68;156434.28;4970629;28;20449;-80
2023/09/08 00:29:57;;;;;;;8.43;6.10;;;;;;;19.76;72.67;156442.13;4967482;28;20465;-79
2023/09/08 00:32:25;;;;;;;7.50;6.70;;;;;;;19.72;73.02;156431.72;4979107;28;20504;-80
2023/09/08 00:34:52;;;;;;;10.83;7.40;;;;;;;19.67;73.38;156419.94;4965641;28;20523;-80
2023/09/08 00:37:18;;;;;;;7.03;6.33;;;;;;;19.65;73.33;156414.75;4963840;28;20460;-79
2023/09/08 00:39:45;;;;;;;8.23;6.80;;;;;;;19.62;73.70;156405.66;4968445;28;20457;-79
2023/09/08 00:42:11;;;;;;;8.50;7.70;;;;;;;19.57;73.74;156393.88;4944675;28;20537;-79
2023/09/08 00:44:38;;;;;;;8.37;7.57;;;;;;;19.54;73.92;156384.78;4980198;28;20529;-79
2023/09/08 00:47:05;;;;;;;7.80;7.00;;;;;;;19.49;74.38;156371.72;4962327;28;20434;-79
2023/09/08 00:49:33;;;;;;;8.40;7.50;;;;;;;19.46;73.86;156365.19;4986057;28;20457;-79
2023/09/08 00:52:00;;;;;;;8.80;7.30;;;;;;;19.46;74.14;156363.94;4996109;28;20829;-79
2023/09/08 00:54:29;;;;;;;7.70;7.00;;;;;;;19.45;74.32;156362.63;4977641;28;20500;-79
2023/09/08 00:56:57;;;;;;;8.40;7.23;;;;;;;19.43;74.30;156358.69;4984847;28;21052;-79
2023/09/08 00:59:24;;;;;;;8.10;6.87;;;;;;;19.43;73.89;156358.69;5000852;28;20448;-79
2023/09/08 01:01:51;;;;;;;7.80;7.10;;;;;;;19.46;74.22;156363.94;4984548;28;20456;-80
2023/09/08 01:04:18;;;;;;;9.90;7.80;;;;;;;19.45;74.36;156362.63;4978581;28;20461;-79
2023/09/08 01:06:46;;;;;;;8.57;7.63;;;;;;;19.42;74.41;156356.09;4949080;28;20473;-79
2023/09/08 01:09:13;;;;;;;9.10;6.80;;;;;;;19.41;74.41;156352.16;4976882;28;20473;-79
2023/09/08 01:11:40;;;;;;;9.97;7.70;;;;;;;19.39;74.66;156348.28;4981898;28;20483;-79
2023/09/08 01:14:07;;;;;;;7.90;7.10;;;;;;;19.38;75.06;156344.34;4999797;28;20450;-79
2023/09/08 01:16:37;;;;;;;7.57;6.87;;;;;;;19.34;75.27;156335.19;4952720;28;20560;-79
2023/09/08 01:19:04;;;;;;;7.63;6.90;;;;;;;19.33;75.04;156332.56;4977636;28;20466;-79
2023/09/08 01:21:57;;;;;;;7.33;6.63;;;;;;;19.34;74.95;156335.19;4959954;28;20501;-79
2023/09/08 01:24:41;;;;;;;7.70;6.87;;;;;;;19.32;74.71;156328.69;5004388;28;20444;-79
2023/09/08 01:27:10;;;;;;;9.37;7.80;;;;;;;19.27;74.97;156315.66;4982412;28;20925;-80
2023/09/08 01:29:38;;;;;;;8.50;7.60;;;;;;;19.21;75.03;156301.31;4995983;28;20447;-79
2023/09/08 01:32:05;;;;;;;7.27;6.57;;;;;;;19.23;75.35;156305.19;4990605;28;20499;-79
2023/09/08 01:34:33;;;;;;;7.53;6.73;;;;;;;19.22;75.69;156303.88;4988926;28;20503;-79
2023/09/08 01:37:02;;;;;;;8.03;7.20;;;;;;;19.17;75.96;156289.53;4970520;28;20846;-79
2023/09/08 01:39:29;;;;;;;8.63;7.23;;;;;;;19.13;76.28;156280.47;4996000;28;20444;-79
2023/09/08 01:41:56;;;;;;;9.63;7.70;;;;;;;19.13;76.19;156280.47;4965696;28;20477;-79
2023/09/08 01:44:23;;;;;;;7.47;6.67;;;;;;;19.05;76.74;156259.59;5001953;28;20449;-79
2023/09/08 01:46:56;;;;;;;9.20;6.97;;;;;;;19.04;77.33;156256.97;4976726;28;20456;-79
2023/09/08 01:49:23;;;;;;;8.40;7.60;;;;;;;19.01;77.36;156249.16;4961216;28;20453;-79
2023/09/08 01:51:50;;;;;;;8.07;7.27;;;;;;;18.99;77.39;156243.97;4982577;28;20560;-79
2023/09/08 01:54:16;;;;;;;8.27;7.43;;;;;;;18.99;77.84;156243.97;4975171;28;20445;-79
2023/09/08 01:56:43;;;;;;;8.10;7.33;;;;;;;18.98;77.71;156241.38;4970308;28;20835;-79
2023/09/08 01:59:10;;;;;;;8.63;7.83;;;;;;;18.95;77.85;156232.25;4962333;28;20449;-79
2023/09/08 02:01:38;;;;;;;13.43;7.30;;;;;;;18.92;77.40;156225.72;4970085;28;20481;-79
2023/09/08 02:04:05;;;;;;;8.70;7.20;;;;;;;18.91;77.86;156221.78;5006240;28;20876;-79
2023/09/08 02:06:32;;;;;;;8.10;7.30;;;;;;;18.89;77.97;156217.91;4975223;28;20512;-79
2023/09/08 02:08:58;;;;;;;8.07;6.70;;;;;;;18.84;78.16;156204.88;4962971;28;20442;-79
2023/09/08 02:11:26;;;;;;;8.50;7.70;;;;;;;18.81;78.60;156198.38;4987194;28;20829;-80
2023/09/08 02:13:53;;;;;;;11.87;7.10;;;;;;;18.81;78.49;156197.06;4997150;28;20521;-79
2023/09/08 02:16:20;;;;;;;9.80;7.70;;;;;;;18.76;78.86;156184.03;4995365;28;20460;-79
2023/09/08 02:18:52;;;;;;;8.23;7.43;;;;;;;18.73;78.77;156177.53;4988551;28;20450;-79
2023/09/08 02:21:18;;;;;;;8.10;7.30;;;;;;;18.74;78.73;156180.09;4992434;28;20462;-79
2023/09/08 02:23:44;;;;;;;7.90;7.10;;;;;;;18.70;78.92;156168.38;4959180;28;20453;-81
2023/09/08 02:26:11;;;;;;;9.13;7.63;;;;;;;18.66;79.57;156158.00;4969303;28;20462;-79
2023/09/08 02:28:38;;;;;;;8.57;7.77;;;;;;;18.57;79.85;156134.53;4977733;28;20473;-79
2023/09/08 02:31:05;;;;;;;8.20;7.40;;;;;;;18.50;80.29;156116.31;4974404;28;20472;-79
2023/09/08 02:33:31;;;;;;;8.00;7.20;;;;;;;18.48;80.59;156111.09;4968751;28;20844;-79
2023/09/08 02:36:04;;;;;;;9.33;7.20;;;;;;;18.44;80.62;156101.91;4979254;28;20464;-79
2023/09/08 02:38:31;;;;;;;7.33;6.43;;;;;;;18.43;80.61;156097.97;4988586;28;20441;-79
2023/09/08 02:40:58;;;;;;;8.57;7.77;;;;;;;18.39;80.96;156087.59;4964605;28;20524;-79
2023/09/08 02:43:27;;;;;;;7.20;6.30;;;;;;;18.36;81.00;156079.75;4994622;28;21144;-79
2023/09/08 02:45:53;;;;;;;10.17;7.47;;;;;;;18.33;81.00;156071.94;4991247;28;20467;-79
2023/09/08 02:48:20;;;;;;;7.93;7.20;;;;;;;18.35;81.15;156077.19;4964717;28;20466;-79
2023/09/08 02:50:46;;;;;;;7.83;7.13;;;;;;;18.35;81.10;156078.44;4956460;28;20469;-79
2023/09/08 02:53:14;;;;;;;8.20;7.30;;;;;;;18.36;81.03;156079.75;4971347;28;20569;-79
2023/09/08 02:55:41;;;;;;;8.70;7.73;;;;;;;18.32;81.07;156070.63;4987002;28;20924;-80
2023/09/08 02:58:08;;;;;;;8.37;7.47;;;;;;;18.30;81.24;156064.13;4958443;28;20460;-79
2023/09/08 03:00:34;;;;;;;7.83;7.23;;;;;;;18.24;81.39;156049.84;4988466;28;20448;-79
2023/09/08 03:03:01;;;;;;;8.33;7.53;;;;;;;18.21;81.88;156043.28;4976390;28;20439;-79
2023/09/08 03:05:28;;;;;;;8.30;6.90;;;;;;;18.17;82.27;156032.88;4969869;28;20561;-79
2023/09/08 03:07:54;;;;;;;9.20;8.00;;;;;;;18.12;82.72;156019.88;4975693;28;20475;-79
2023/09/08 03:10:23;;;;;;;11.63;8.00;;;;;;;18.09;82.89;156012.03;4968056;28;20516;-79
2023/09/08 03:12:49;;;;;;;8.53;7.73;;;;;;;18.08;83.16;156009.41;4957584;28;20478;-79
2023/09/08 03:15:17;;;;;;;9.00;8.07;;;;;;;18.06;83.24;156004.22;4965608;28;20848;-79
2023/09/08 03:17:44;;;;;;;8.63;7.83;;;;;;;18.02;83.20;155993.81;4977008;28;20450;-80
2023/09/08 03:20:13;;;;;;;8.00;7.30;;;;;;;18.00;83.42;155988.59;4978582;28;20462;-79
2023/09/08 03:22:39;;;;;;;9.27;8.37;;;;;;;17.96;83.77;155976.88;4964445;28;20486;-91
2023/09/08 03:25:11;;;;;;;9.70;8.80;;;;;;;17.96;83.82;155976.88;4953752;28;20474;-89
2023/09/08 03:27:39;;;;;;;8.93;8.03;;;;;;;17.93;84.10;155970.38;4955362;28;21019;-91
2023/09/08 03:30:09;;;;;;;8.60;7.70;;;;;;;17.87;84.33;155954.72;4957539;28;20459;-91
2023/09/08 03:32:36;;;;;;;9.63;8.03;;;;;;;17.80;84.58;155935.22;4958607;28;20497;-91
2023/09/08 03:35:06;;;;;;;9.20;8.20;;;;;;;17.74;84.76;155919.63;4955259;28;20899;-91
2023/09/08 03:37:33;;;;;;;9.83;8.77;;;;;;;17.69;85.08;155907.88;4954108;28;20889;-91
2023/09/08 03:40:04;;;;;;;8.50;7.70;;;;;;;17.71;85.05;155913.13;4953217;28;20491;-91
2023/09/08 03:42:31;;;;;;;9.13;8.20;;;;;;;17.69;85.35;155907.88;4946238;28;20470;-91
2023/09/08 03:45:08;;;;;;;9.80;7.70;;;;;;;17.69;85.43;155906.56;4958677;28;21050;-90
2023/09/08 03:47:35;;;;;;;9.20;8.30;;;;;;;17.69;85.33;155907.88;4967323;28;20450;-90
2023/09/08 03:50:02;;;;;;;11.43;8.60;;;;;;;17.71;85.66;155913.13;4950817;28;20461;-90
2023/09/08 03:52:29;;;;;;;9.07;8.10;;;;;;;17.68;85.59;155905.28;4955005;28;20477;-90
2023/09/08 03:54:56;;;;;;;8.40;7.60;;;;;;;17.62;86.02;155890.97;4953901;28;20489;-89
2023/09/08 03:57:25;;;;;;;9.33;8.43;;;;;;;17.60;86.20;155885.78;4971166;28;20474;-89
2023/09/08 03:59:52;;;;;;;10.37;8.03;;;;;;;17.59;86.19;155881.84;4950806;28;20538;-89
2023/09/08 04:02:21;;;;;;;8.63;7.63;;;;;;;17.56;86.45;155875.34;4972989;28;20447;-89
2023/09/08 04:04:47;;;;;;;10.10;8.97;;;;;;;17.56;86.33;155875.34;4965084;28;20489;-89
2023/09/08 04:07:18;;;;;;;10.60;9.07;;;;;;;17.52;86.53;155863.59;4952685;28;20482;-89
2023/09/08 04:10:01;;;;;;;9.00;8.07;;;;;;;17.49;86.65;155855.78;4976105;28;20522;-89
2023/09/08 04:12:28;;;;;;;9.93;7.97;;;;;;;17.45;86.68;155846.63;4963288;28;20473;-89
2023/09/08 04:14:55;;;;;;;11.00;8.70;;;;;;;17.41;87.22;155836.25;4953513;28;20491;-90
2023/09/08 04:17:23;;;;;;;9.73;8.50;;;;;;;17.39;87.16;155829.75;4949355;28;20466;-89
2023/09/08 04:19:53;;;;;;;9.23;8.27;;;;;;;17.35;87.58;155820.63;4956486;28;20521;-89
2023/09/08 04:22:20;;;;;;;9.70;8.60;;;;;;;17.35;87.56;155819.31;4957754;28;20514;-89
2023/09/08 04:24:53;;;;;;;11.00;8.73;;;;;;;17.33;87.91;155815.44;4952244;28;20766;-90
2023/09/08 04:27:20;;;;;;;9.90;8.40;;;;;;;17.33;87.81;155814.13;4946738;29;20465;-90
2023/09/08 04:29:47;;;;;;;8.87;8.00;;;;;;;17.32;88.05;155811.50;4956535;28;20537;-89
2023/09/08 04:32:13;;;;;;;8.60;7.80;;;;;;;17.32;88.12;155812.81;4957139;28;20475;-90
2023/09/08 04:34:42;;;;;;;8.07;7.27;;;;;;;17.35;87.98;155820.63;4947506;28;20456;-90
2023/09/08 04:37:11;;;;;;;11.47;8.73;;;;;;;17.35;87.78;155819.31;4955881;28;20488;-90
2023/09/08 04:39:38;;;;;;;8.73;7.93;;;;;;;17.33;87.82;155814.13;4948518;28;20542;-91
2023/09/08 04:42:09;;;;;;;9.20;8.30;;;;;;;17.30;88.06;155806.28;4952652;28;20457;-91
2023/09/08 04:44:36;;;;;;;9.30;8.13;;;;;;;17.27;88.23;155799.78;4953445;28;20925;-92
2023/09/08 04:47:03;;;;;;;9.37;7.47;;;;;;;17.23;88.19;155789.41;4968567;28;20441;-91
2023/09/08 04:49:33;;;;;;;9.97;7.97;;;;;;;17.20;88.52;155781.59;4952018;28;20462;-90
2023/09/08 04:52:01;;;;;;;8.33;7.20;;;;;;;17.12;88.60;155760.78;4946693;28;20562;-90
2023/09/08 04:54:29;;;;;;;8.53;7.70;;;;;;;17.06;88.86;155745.13;4952412;28;20451;-90
2023/09/08 04:56:57;;;;;;;8.70;7.80;;;;;;;17.00;89.07;155730.81;4962331;28;20464;-90
2023/09/08 04:59:25;;;;;;;11.00;7.90;;;;;;;16.97;90.16;155721.75;4958176;28;20541;-90
2023/09/08 05:01:54;;;;;;;8.17;7.37;;;;;;;16.97;90.48;155723.00;4965751;28;20791;-90
2023/09/08 05:04:22;;;;;;;9.00;7.73;;;;;;;16.94;90.67;155715.19;4949070;28;20457;-90
2023/09/08 05:06:48;;;;;;;9.00;8.10;;;;;;;16.92;90.63;155710.00;4947192;28;20876;-89
2023/09/08 05:09:19;;;;;;;9.00;8.10;;;;;;;16.93;90.73;155711.31;4964335;28;20486;-89
2023/09/08 05:11:49;;;;;;;9.40;8.00;;;;;;;16.92;90.64;155710.00;4953063;28;20449;-89
2023/09/08 05:14:16;;;;;;;9.00;8.10;;;;;;;16.94;90.53;155713.94;4951378;28;20493;-91
2023/09/08 05:16:46;;;;;;;8.73;7.60;;;;;;;16.94;90.79;155715.19;4947667;28;21014;-92
2023/09/08 05:19:23;;;;;;;10.07;8.47;;;;;;;16.96;91.22;155720.44;4969253;28;20480;-92
2023/09/08 05:21:51;;;;;;;10.23;8.47;;;;;;;16.96;90.90;155720.44;4966534;28;20520;-91
2023/09/08 05:24:20;;;;;;;8.93;8.10;;;;;;;16.95;91.25;155717.81;4952392;28;20494;-91
2023/09/08 05:26:50;;;;;;;10.20;9.10;;;;;;;16.99;92.00;155726.94;4967485;28;20484;-92
2023/09/08 05:29:17;;;;;;;10.13;9.03;;;;;;;17.02;91.93;155734.75;4951319;28;20442;-91
2023/09/08 05:31:45;;;;;;;10.60;8.60;;;;;;;17.09;91.66;155751.63;4962824;28;20466;-90
2023/09/08 05:34:18;;;;;;;9.20;7.37;;;;;;;17.11;91.21;155758.16;4954778;28;20479;-90
2023/09/08 05:36:50;;;;;;;11.97;9.13;;;;;;;17.13;91.69;155763.34;4963898;28;20478;-89
2023/09/08 05:39:25;;;;;;;9.53;8.23;;;;;;;17.16;91.97;155769.84;4948702;28;20957;-90
2023/09/08 05:41:53;;;;;;;8.80;8.00;;;;;;;17.17;92.06;155772.47;4969790;28;20971;-90
2023/09/08 05:44:21;;;;;;;10.30;9.00;;;;;;;17.20;92.29;155781.59;4959280;28;20449;-90
2023/09/08 05:46:54;;;;;;;10.73;8.97;;;;;;;17.26;92.56;155795.91;4979331;28;20808;-88
2023/09/08 05:49:23;;;;;;;10.10;9.10;;;;;;;17.31;92.98;155810.22;4952168;28;20465;-90
2023/09/08 05:51:52;;;;;;;9.60;8.67;;;;;;;17.38;93.03;155828.44;4954882;28;20536;-89
2023/09/08 05:54:24;;;;;;;9.90;8.90;;;;;;;17.47;93.18;155851.84;4966511;28;20524;-89
2023/09/08 05:56:54;;;;;;;9.60;8.60;;;;;;;17.66;93.32;155900.06;4965533;28;20481;-89
2023/09/08 05:59:28;;;;;;;12.87;9.23;;;;;;;17.90;92.81;155962.56;4985116;28;20960;-89
2023/09/08 06:01:55;;;;;;;11.37;10.17;;;;;;;18.18;91.62;156034.19;4950477;28;20462;-89
2023/09/08 06:04:22;;;;;;;9.87;8.97;;;;;;;18.44;90.09;156100.59;4948553;28;20464;-89
2023/09/08 06:06:51;;;;;;;9.77;8.77;;;;;;;18.67;89.40;156161.88;4966279;28;20461;-89
2023/09/08 06:09:28;;;;;;;11.37;10.07;;;;;;;18.94;87.72;156230.94;4960895;28;20462;-88
2023/09/08 06:11:56;;;;;;;11.53;10.17;;;;;;;19.18;86.79;156293.50;4979197;28;20997;-89
2023/09/08 06:14:24;;;;;;;12.33;9.93;;;;;;;19.40;85.67;156350.91;4994333;28;20568;-88
2023/09/08 06:16:51;;;;;;;10.67;9.57;;;;;;;19.60;84.11;156400.41;4964754;28;20466;-89
2023/09/08 06:19:24;;;;;;;10.50;9.40;;;;;;;19.81;83.40;156456.47;4946969;28;20464;-89
2023/09/08 06:21:58;;;;;;;11.40;9.80;;;;;;;20.04;82.32;156515.19;4965490;28;20493;-89
2023/09/08 06:24:32;;;;;;;10.93;9.40;;;;;;;20.28;81.00;156577.78;4951017;28;20459;-87
2023/09/08 06:27:02;;;;;;;10.77;9.70;;;;;;;20.43;79.93;156616.94;4947527;28;20831;-89
2023/09/08 06:29:31;;;;;;;9.97;8.97;;;;;;;20.64;79.50;156670.41;4976187;28;20457;-89
2023/09/08 06:32:02;;;;;;;10.97;9.87;;;;;;;20.80;78.52;156710.84;4979823;28;20449;-90
2023/09/08 06:34:29;;;;;;;10.70;9.60;;;;;;;21.01;78.38;156765.66;4946523;28;20479;-89
2023/09/08 06:36:58;;;;;;;11.00;10.00;;;;;;;21.24;77.14;156825.72;4961787;28;20861;-89
2023/09/08 06:39:29;;;;;;;10.53;9.43;;;;;;;21.35;76.01;156854.44;4977593;28;20462;-89
2023/09/08 06:42:05;;;;;;;8.53;7.73;;;;;;;21.45;75.44;156880.53;4972860;28;20865;-88
2023/09/08 06:44:45;;;;;;;10.87;9.70;;;;;;;21.62;75.08;156924.97;4962039;28;20476;-88
2023/09/08 06:47:17;;;;;;;10.03;9.03;;;;;;;21.80;74.60;156971.94;4948303;28;20481;-88
2023/09/08 06:49:47;;;;;;;10.20;8.47;;;;;;;22.03;73.84;157030.72;4947495;28;20464;-89
2023/09/08 06:52:20;;;;;;;8.63;7.83;;;;;;;22.25;72.69;157086.91;4948210;28;20962;-88
2023/09/08 06:54:49;;;;;;;10.00;9.10;;;;;;;22.41;71.84;157130.00;4944647;28;20482;-87
2023/09/08 06:57:21;;;;;;;9.20;8.40;;;;;;;22.60;71.59;157178.34;4962962;28;20474;-88
2023/09/08 06:59:53;;;;;;;9.63;8.63;;;;;;;22.86;70.68;157246.31;4978312;28;20488;-88
2023/09/08 07:02:30;;;;;;;10.43;9.43;;;;;;;23.01;70.09;157284.19;4964493;28;20466;-91
2023/09/08 07:05:10;;;;;;;10.00;8.60;;;;;;;23.12;69.80;157311.63;4963352;28;20477;-90
2023/09/08 07:07:44;;;;;;;10.27;8.90;;;;;;;23.28;69.34;157353.47;4979173;28;20460;-88
2023/09/08 07:10:41;;;;;;;10.37;9.47;;;;;;;23.43;68.58;157394.03;4960862;28;20461;-88
2023/09/08 07:13:22;;;;;;;10.57;9.60;;;;;;;23.53;67.56;157420.22;4952861;28;20468;-89
2023/09/08 07:15:55;;;;;;;10.60;9.70;;;;;;;23.62;68.26;157442.38;4967689;28;20476;-89
2023/09/08 07:18:34;;;;;;;9.83;8.83;;;;;;;23.76;68.84;157479.00;4967529;28;20528;-89
2023/09/08 07:21:04;;;;;;;10.37;8.53;;;;;;;23.99;67.61;157539.13;4959614;28;20454;-89
2023/09/08 07:23:32;;;;;;;9.53;8.63;;;;;;;24.14;66.70;157578.47;4978510;28;20459;-89
2023/09/08 07:26:01;;;;;;;10.07;9.17;;;;;;;24.15;66.05;157581.03;4949265;28;20454;-88
2023/09/08 07:28:45;;;;;;;10.47;9.47;;;;;;;24.25;65.29;157604.59;4956885;28;20473;-89
2023/09/08 07:31:17;;;;;;;14.50;9.93;;;;;;;24.34;64.87;157629.44;4973870;28;20442;-88
2023/09/08 07:33:47;;;;;;;10.70;8.90;;;;;;;24.44;65.13;157654.25;4962215;28;20847;-89
2023/09/08 07:36:16;;;;;;;14.73;9.33;;;;;;;24.48;64.31;157666.06;4948675;28;20480;-89
2023/09/08 07:38:55;;;;;;;;;;;;;;;;;;;;;
2023/09/08 07:41:24;;;;;;;9.53;8.60;;;;;;;24.66;65.23;157711.84;4980369;28;20787;-89
2023/09/08 07:43:59;;;;;;;10.07;8.93;;;;;;;24.71;64.93;157726.22;4950941;28;20492;-92
2023/09/08 07:46:29;;;;;;;9.80;8.90;;;;;;;24.84;64.34;157758.97;4948737;28;20472;-91
2023/09/08 07:48:56;;;;;;;9.70;8.80;;;;;;;24.99;64.67;157798.25;4948122;28;20550;-91
2023/09/08 07:51:23;;;;;;;10.17;9.17;;;;;;;25.01;63.92;157802.16;4979028;28;20442;-91
2023/09/08 07:53:50;;;;;;;11.37;9.30;;;;;;;25.13;63.68;157834.84;4946627;28;20510;-91
2023/09/08 07:56:17;;;;;;;9.70;8.80;;;;;;;25.19;62.38;157849.25;4943936;28;21149;-91
2023/09/08 07:58:47;;;;;;;9.60;8.70;;;;;;;25.30;62.75;157879.38;4958590;28;20482;-91
2023/09/08 08:01:17;;;;;;;12.13;9.27;;;;;;;25.42;62.58;157910.75;4949974;28;20517;-90
2023/09/08 08:03:46;;;;;;;9.07;8.17;;;;;;;25.52;62.99;157934.41;4943452;28;20847;-91
2023/09/08 08:06:18;;;;;;;9.07;8.27;;;;;;;25.68;62.02;157976.28;4903045;28;1098844;-90
2023/09/08 08:08:45;;;;;;;9.80;8.77;;;;;;;25.75;61.99;157994.59;4942180;28;20259;-89
2023/09/08 08:11:13;;;;;;;10.17;9.27;;;;;;;25.75;60.79;157994.59;4944935;28;20545;-89
2023/09/08 08:13:40;;;;;;;9.47;8.67;;;;;;;25.80;60.62;158007.69;4962680;28;20489;-87
2023/09/08 08:16:09;;;;;;;9.37;8.47;;;;;;;25.83;60.28;158016.88;4945863;28;20465;-87
2023/09/08 08:18:44;;;;;;;9.00;8.20;;;;;;;25.91;60.97;158036.50;4975994;28;20478;-88
2023/09/08 08:21:14;;;;;;;12.00;8.10;;;;;;;25.87;61.15;158027.31;4976163;28;20938;-87
2023/09/08 08:23:40;;;;;;;9.80;8.87;;;;;;;25.96;59.79;158049.59;4956426;28;20501;-88
2023/09/08 08:26:10;;;;;;;9.13;8.37;;;;;;;26.03;60.55;158067.88;4968173;28;20457;-87
2023/09/08 08:28:44;;;;;;;8.57;7.87;;;;;;;26.11;60.14;158087.53;4957498;28;20450;-87
2023/09/08 08:31:13;;;;;;;9.17;8.27;;;;;;;26.19;60.35;158109.84;4981183;28;20457;-87
2023/09/08 08:33:41;;;;;;;8.70;7.93;;;;;;;26.12;58.50;158091.47;4948450;28;20576;-87
2023/09/08 08:36:09;;;;;;;8.27;7.57;;;;;;;26.16;59.87;158101.97;4949819;28;20469;-88
2023/09/08 08:38:38;;;;;;;8.53;7.73;;;;;;;26.18;59.87;158105.94;4966382;28;20492;-87
2023/09/08 08:41:07;;;;;;;9.23;8.33;;;;;;;26.25;60.66;158125.56;4943138;28;20466;-87
2023/09/08 08:43:42;;;;;;;9.00;7.87;;;;;;;26.33;58.93;158146.53;4948458;28;20454;-86
2023/09/08 08:46:09;;;;;;;9.03;8.13;;;;;;;26.40;58.87;158164.84;4963243;28;20466;-86
2023/09/08 08:48:39;;;;;;;9.20;8.40;;;;;;;26.42;58.84;158170.06;4977306;28;20468;-86
2023/09/08 08:51:06;;;;;;;8.90;8.10;;;;;;;26.45;59.05;158176.66;4971756;28;20477;-87
2023/09/08 08:53:36;;;;;;;8.47;7.67;;;;;;;26.43;59.49;158172.72;4963458;28;20457;-86
2023/09/08 08:56:11;;;;;;;8.33;7.53;;;;;;;26.46;59.53;158180.56;4992076;28;20536;-86
2023/09/08 08:58:38;;;;;;;10.07;9.23;;;;;;;26.41;60.50;158167.47;4980808;28;20459;-87
2023/09/08 09:01:05;;;;;;;10.47;9.47;;;;;;;26.37;58.97;158156.97;4945821;28;20472;-87
2023/09/08 09:03:32;;;;;;;8.50;7.70;;;;;;;26.34;59.56;158147.84;4972045;28;20462;-87
2023/09/08 09:05:59;;;;;;;8.37;7.67;;;;;;;26.25;60.81;158125.56;4958195;28;20632;-87
2023/09/08 09:08:27;;;;;;;9.40;8.60;;;;;;;26.24;60.59;158122.94;4943685;28;20681;-87
2023/09/08 09:10:55;;;;;;;14.90;9.23;;;;;;;26.31;61.22;158141.31;4951463;28;20457;-87
2023/09/08 09:13:22;;;;;;;9.70;7.70;;;;;;;26.36;61.61;158154.41;4969188;28;20468;-87
2023/09/08 09:15:49;;;;;;;9.27;7.60;;;;;;;26.42;59.22;158170.06;4956133;28;20775;-87
2023/09/08 09:18:16;;;;;;;9.07;8.27;;;;;;;26.47;59.88;158181.91;4955191;28;20644;-85
2023/09/08 09:20:54;;;;;;;9.20;8.40;;;;;;;26.32;58.63;158143.88;4955914;28;20537;-86
2023/09/08 09:23:27;;;;;;;9.00;8.10;;;;;;;26.32;59.67;158143.88;4972753;28;20608;-87
2023/09/08 09:25:56;;;;;;;9.10;8.23;;;;;;;26.38;59.60;158159.63;4956473;28;20461;-86
2023/09/08 09:28:22;;;;;;;9.43;8.43;;;;;;;26.39;58.29;158160.94;4971344;28;20454;-88
2023/09/08 09:30:51;;;;;;;8.83;8.03;;;;;;;26.21;59.55;158115.06;4958306;28;20561;-87
2023/09/08 09:33:18;;;;;;;9.20;8.30;;;;;;;26.20;61.36;158112.47;4957796;28;21057;-87
2023/09/08 09:35:46;;;;;;;9.20;8.40;;;;;;;26.17;60.37;158104.63;4971869;28;20628;-88
2023/09/08 09:38:13;;;;;;;8.87;8.00;;;;;;;26.19;60.27;158108.53;4940112;28;20557;-87
2023/09/08 09:40:40;;;;;;;9.23;8.30;;;;;;;26.32;59.36;158143.88;4972712;28;20861;-87
2023/09/08 09:43:09;;;;;;;8.93;8.13;;;;;;;26.36;59.29;158153.06;4960294;28;20445;-87
2023/09/08 09:45:37;;;;;;;8.57;7.83;;;;;;;26.26;60.40;158128.22;4978528;28;20458;-87
2023/09/08 09:48:04;;;;;;;11.40;9.17;;;;;;;26.21;60.82;158115.06;4979030;28;21038;-87
2023/09/08 09:50:33;;;;;;;9.37;8.47;;;;;;;26.10;61.13;158086.25;4962261;28;20458;-86
2023/09/08 09:53:00;;;;;;;8.50;7.70;;;;;;;26.21;61.14;158113.81;4979773;28;21025;-87
2023/09/08 09:55:28;;;;;;;8.53;7.73;;;;;;;26.29;61.09;158136.03;4978318;28;20500;-86
2023/09/08 09:57:58;;;;;;;10.20;9.20;;;;;;;26.35;60.52;158150.44;4977732;28;20453;-86
2023/09/08 10:00:26;;;;;;;12.20;8.57;;;;;;;26.29;60.86;158136.03;4964629;28;20480;-86
2023/09/08 10:02:54;;;;;;;9.57;8.67;;;;;;;26.29;61.69;158134.75;4956788;28;20480;-85
2023/09/08 10:05:21;;;;;;;8.87;8.13;;;;;;;26.38;61.70;158158.31;4960080;28;20482;-85
2023/09/08 10:07:48;;;;;;;9.43;8.53;;;;;;;26.40;61.33;158164.84;4976323;28;20961;-86
2023/09/08 10:10:15;;;;;;;9.97;8.97;;;;;;;26.28;61.60;158132.13;4991725;28;20509;-85
2023/09/08 10:12:44;;;;;;;9.60;8.70;;;;;;;26.25;61.96;158125.56;4950570;28;20461;-86
2023/09/08 10:15:11;;;;;;;9.33;8.47;;;;;;;26.32;62.20;158143.88;4993568;28;20477;-86
2023/09/08 10:17:41;;;;;;;12.37;9.33;;;;;;;26.41;61.15;158166.16;4962466;28;20449;-86
2023/09/08 10:20:11;;;;;;;9.27;8.37;;;;;;;26.37;61.54;158156.97;4962968;28;20454;-86
2023/09/08 10:22:41;;;;;;;9.23;8.43;;;;;;;26.43;61.17;158171.38;4973977;28;20456;-86
2023/09/08 10:25:09;;;;;;;9.20;8.20;;;;;;;26.20;61.27;158112.47;4969517;28;20847;-87
2023/09/08 10:27:36;;;;;;;10.07;9.07;;;;;;;26.17;61.83;158104.63;4970821;28;20461;-87
2023/09/08 10:30:04;;;;;;;14.57;8.27;;;;;;;26.24;62.00;158122.94;4971709;28;20463;-81
2023/09/08 10:32:32;;;;;;;12.33;8.23;;;;;;;26.25;61.22;158124.25;4977617;28;20449;-82
2023/09/08 10:35:01;;;;;;;9.40;8.40;;;;;;;26.30;61.01;158137.34;4976316;28;20520;-82
2023/09/08 10:37:29;;;;;;;11.27;8.50;;;;;;;26.38;61.16;158159.63;4961449;28;20812;-82
2023/09/08 10:39:56;;;;;;;9.50;8.37;;;;;;;26.42;60.76;158170.06;4959247;28;20470;-81
2023/09/08 10:42:28;;;;;;;9.57;8.67;;;;;;;26.47;59.82;158183.22;4958289;28;20626;-82
2023/09/08 10:45:01;;;;;;;8.57;7.70;;;;;;;26.48;59.86;158185.81;4974334;28;20492;-82
2023/09/08 10:47:33;;;;;;;8.80;8.03;;;;;;;26.49;59.94;158188.44;4954914;28;20878;-82
2023/09/08 10:50:03;;;;;;;8.53;7.63;;;;;;;26.53;60.02;158198.91;4959158;28;20564;-82
2023/09/08 10:52:32;;;;;;;9.53;8.73;;;;;;;26.55;58.94;158204.19;4959528;28;20447;-82
2023/09/08 10:54:59;;;;;;;9.37;8.47;;;;;;;26.38;59.21;158159.63;4959317;28;20477;-81
2023/09/08 10:57:26;;;;;;;9.37;8.40;;;;;;;26.36;61.15;158154.41;4977279;28;20453;-81
2023/09/08 10:59:54;;;;;;;9.80;8.90;;;;;;;26.50;60.25;158189.75;4972793;28;20473;-81
2023/09/08 11:02:35;;;;;;;10.50;9.60;;;;;;;26.44;59.69;158174.03;4958252;28;20529;-81
2023/09/08 11:05:04;;;;;;;8.87;8.17;;;;;;;26.43;61.11;158171.38;4962071;28;22278;-82
2023/09/08 11:07:31;;;;;;;10.10;9.10;;;;;;;26.46;59.13;158180.56;4961777;28;20431;-82
2023/09/08 11:09:58;;;;;;;9.10;8.30;;;;;;;26.32;59.96;158143.88;4980658;28;20475;-82
2023/09/08 11:12:27;;;;;;;8.13;7.43;;;;;;;26.43;60.22;158172.72;4975459;28;20819;-82
2023/09/08 11:14:54;;;;;;;10.80;8.93;;;;;;;26.46;58.56;158179.25;4978921;28;20482;-82
2023/09/08 11:17:20;;;;;;;9.13;8.33;;;;;;;26.30;59.91;158138.66;4959710;28;20870;-82
2023/09/08 11:19:48;;;;;;;9.30;8.50;;;;;;;26.41;60.20;158167.47;4958013;28;20496;-82
2023/09/08 11:22:17;;;;;;;10.53;8.87;;;;;;;26.47;59.13;158183.22;4977517;28;20464;-82
2023/09/08 11:24:44;;;;;;;9.47;8.50;;;;;;;26.43;59.35;158172.72;4958915;28;20455;-82
2023/09/08 11:27:11;;;;;;;9.47;8.67;;;;;;;26.51;59.67;158192.34;4974199;28;20819;-82
2023/09/08 11:29:40;;;;;;;10.60;9.50;;;;;;;26.49;58.64;158187.13;4943110;28;20468;-82
2023/09/08 11:32:07;;;;;;;9.63;8.20;;;;;;;26.43;59.03;158171.38;4975107;28;20460;-82